Hauptseite
METAR-TAF:

METAR-TAF

Flughäfen :

Arctic Bay, Nunavut, Kanada

Flughafen Arctic Bay

Breite: 73-00-23N, Länge: 085-02-50W, Höhe: 22 m

Beobachtung

Neuester Wetterbericht von vor 11 Stunden und 5 Minuten, um 23:00 UTC
Wind 7 kt aus West/Nordwest
Temperatur -33°C
Luftfeuchtigkeit 60%
Luftdruck 994 hPa
Sichtweite: 48.3 km
Leicht bewölkt in der Höhe von 3000 ft
Leicht bewölkt in der Höhe von 7000 ft

METAR: CYAB 242300Z 30007KT 30SM FEW030 FEW070 M33/M38 A2934 RMK SC1AC1 SC TR AC TR -31.4/-34.4/0.0/SNW CVR/MUCH LOOSE/LAST STFD OBS/NEXT 261200Z SLP943

Zeit: 05:05 (10:05 UTC)

Prognose

Neuester Wetterbericht von vor 14 Stunden und 27 Minuten, um 19:38 UTC
Gültige Prognose vom 24 um 20 UTC bis 24 um 23 UTC
Wind 3 kt aus unterschiedlichen Richtungen
Sichtweite: 10 km
Leicht bewölkt in der Höhe von 1500 ft

TAF: CYAB 241938Z 2420/2423 VRB03KT P6SM FEW015 RMK NXT FCST WILL BE ISSUED AT 261345Z

Wetterbeobachtungen und Prognosen von mehr als 4000 Flughäfen (METAR und TAF Bericht).

Die verfügbaren Stationen werden durch gelbe und rote Markierungen auf der Karte dargestellt.

Führen Sie die Maus auf sie, um den Namen der Station zu sehen.

Darauf klicken, um die Beobachtung von Wetterbeobachtungen und Prognosen zu sehen.

Um die Karte zu ändern : klicken Sie auf den grünen Tasten mit einem schwarzen Kreuz Zum Vergrößern, auf den grünen Button mit einem Gedankenstrich zu verkleinern, oder auf die grünen Pfeile für benachbarte Karten.


METAR-TAF: